Time;durP1;ratioP1;P1;durP2;ratioP2;P2;SDS_P1;SDS_P2;PMS_P1;PMS_P2;Temp;Humidity;BMP_temperature;BMP_pressure;BME280_temperature;BME280_humidity;BME280_pressure;Samples;Min_cycle;Max_cycle;Signal;HPM_P1;HPM_P2
2022/04/08 00:01:21;;;;;;;;;;;;;;;7.82;60.61;99309.81;5049276;28;19974;-76
2022/04/08 00:03:47;;;;;;;;;;;;;;;8.07;60.50;99313.25;5051774;28;19920;-75
2022/04/08 00:06:12;;;;;;;;;;;;;;;8.04;60.46;99319.38;5047081;28;19932;-75
2022/04/08 00:08:37;;;;;;;;;;;;;;;8.04;58.86;99314.19;5047988;28;19944;-75
2022/04/08 00:11:03;;;;;;;;;;;;;;;8.04;60.43;99319.38;5049218;28;19920;-75
2022/04/08 00:13:28;;;;;;;;;;;;;;;7.98;60.50;99331.66;5047128;28;20015;-75
2022/04/08 00:15:54;;;;;;;;;;;;;;;7.99;59.30;99341.97;5046739;28;19929;-75
2022/04/08 00:18:19;;;;;;;;;;;;;;;7.88;58.55;99346.63;5051919;28;19932;-75
2022/04/08 00:20:45;;;;;;;;;;;;;;;7.80;60.11;99350.34;5057526;28;19928;-75
2022/04/08 00:23:10;;;;;;;;;;;;;;;8.01;58.92;99358.25;5043443;28;20386;-76
2022/04/08 00:25:36;;;;;;;;;;;;;;;8.03;59.57;99356.47;5054890;28;19939;-74
2022/04/08 00:28:01;;;;;;;;;;;;;;;7.83;60.65;99358.84;5048389;28;22071;-75
2022/04/08 00:30:26;;;;;;;;;;;;;;;7.69;62.25;99361.03;5050445;28;20578;-75
2022/04/08 00:32:52;;;;;;;;;;;;;;;7.76;61.31;99365.09;5061345;28;20026;-75
2022/04/08 00:35:17;;;;;;;;;;;;;;;7.62;62.48;99367.28;5065817;28;19929;-77
2022/04/08 00:37:43;;;;;;;;;;;;;;;7.91;61.33;99363.81;5059085;28;20016;-77
2022/04/08 00:40:10;;;;;;;;;;;;;;;7.98;61.45;99367.84;5054125;28;19928;-76
2022/04/08 00:42:36;;;;;;;;;;;;;;;7.85;60.43;99364.00;5043520;28;20452;-76
2022/04/08 00:45:02;;;;;;;;;;;;;;;7.65;61.73;99375.78;5054348;28;19964;-76
2022/04/08 00:47:28;;;;;;;;;;;;;;;7.78;61.52;99385.75;5052965;28;20612;-76
2022/04/08 00:49:54;;;;;;;;;;;;;;;8.08;60.11;99395.97;5046864;28;19921;-76
2022/04/08 00:52:19;;;;;;;;;;;;;;;8.12;59.21;99394.94;5053524;28;19924;-76
2022/04/08 00:54:45;;;;;;;;;;;;;;;8.12;59.32;99389.78;5045280;28;20308;-76
2022/04/08 00:57:11;;;;;;;;;;;;;;;8.05;59.98;99405.56;5056070;28;19929;-76
2022/04/08 00:59:37;;;;;;;;;;;;;;;7.94;60.74;99400.72;5044820;28;19990;-76
2022/04/08 01:02:02;;;;;;;;;;;;;;;7.77;62.46;99413.34;5054274;28;20533;-76
2022/04/08 01:04:28;;;;;;;;;;;;;;;7.86;61.19;99407.88;5059091;28;19925;-74
2022/04/08 01:06:54;;;;;;;;;;;;;;;8.22;59.86;99411.88;5049528;28;19920;-74
2022/04/08 01:09:21;;;;;;;;;;;;;;;8.18;58.75;99415.44;5057320;28;19916;-74
2022/04/08 01:11:46;;;;;;;;;;;;;;;8.15;59.78;99418.13;5053766;28;19925;-74
2022/04/08 01:14:13;;;;;;;;;;;;;;;8.01;60.17;99420.31;5032512;28;19974;-74
2022/04/08 01:16:38;;;;;;;;;;;;;;;8.19;59.64;99430.09;5055810;28;20397;-75
2022/04/08 01:19:04;;;;;;;;;;;;;;;8.23;59.43;99433.44;5047136;28;19936;-76
2022/04/08 01:21:31;;;;;;;;;;;;;;;8.10;59.96;99445.91;5048398;28;19920;-75
2022/04/08 01:23:57;;;;;;;;;;;;;;;8.18;59.95;99448.22;5049739;28;19925;-75
2022/04/08 01:26:22;;;;;;;;;;;;;;;8.18;60.39;99443.91;5070195;28;19924;-75
2022/04/08 01:28:48;;;;;;;;;;;;;;;7.81;60.50;99453.72;5051463;28;20316;-74
2022/04/08 01:31:13;;;;;;;;;;;;;;;7.99;60.50;99457.47;5049571;28;19932;-74
2022/04/08 01:33:38;;;;;;;;;;;;;;;8.23;60.11;99469.63;5056172;28;19928;-75
2022/04/08 01:36:04;;;;;;;;;;;;;;;8.25;59.36;99468.69;5044965;28;19929;-75
2022/04/08 01:38:29;;;;;;;;;;;;;;;8.18;60.49;99469.78;5051476;28;19932;-74
2022/04/08 01:40:54;;;;;;;;;;;;;;;8.20;59.71;99470.59;5048679;28;20556;-75
2022/04/08 01:43:20;;;;;;;;;;;;;;;8.33;59.70;99472.75;5052169;28;20372;-76
2022/04/08 01:45:45;;;;;;;;;;;;;;;8.37;61.17;99471.81;5056128;28;19921;-76
2022/04/08 01:48:10;;;;;;;;;;;;;;;8.35;60.13;99486.53;5048429;28;19967;-75
2022/04/08 01:50:36;;;;;;;;;;;;;;;8.35;59.74;99481.38;5042798;28;19921;-75
2022/04/08 01:53:01;;;;;;;;;;;;;;;7.94;61.16;99486.03;5051972;28;19940;-76
2022/04/08 01:55:26;;;;;;;;;;;;;;;8.47;58.26;99484.41;5053540;28;19963;-76
2022/04/08 01:57:52;;;;;;;;;;;;;;;8.28;59.05;99485.84;5052862;28;19947;-76
2022/04/08 02:00:17;;;;;;;;;;;;;;;8.30;58.86;99496.97;5051806;28;19929;-76
2022/04/08 02:02:42;;;;;;;;;;;;;;;8.42;58.78;99496.63;5056707;28;20441;-75
2022/04/08 02:05:08;;;;;;;;;;;;;;;8.14;59.85;99503.56;5049243;28;19921;-75
2022/04/08 02:07:33;;;;;;;;;;;;;;;8.37;59.58;99506.28;5051972;28;20066;-75
2022/04/08 02:09:59;;;;;;;;;;;;;;;8.27;59.27;99504.84;5028928;28;19925;-75
2022/04/08 02:12:24;;;;;;;;;;;;;;;8.37;59.56;99508.88;5047628;28;19925;-76
2022/04/08 02:14:49;;;;;;;;;;;;;;;8.35;59.34;99510.69;5047789;28;19954;-75
2022/04/08 02:17:15;;;;;;;;;;;;;;;8.37;58.39;99514.06;5065042;28;19952;-76
2022/04/08 02:19:43;;;;;;;;;;;;;;;8.36;60.55;99516.66;5049520;28;19944;-75
2022/04/08 02:22:08;;;;;;;;;;;;;;;8.08;60.26;99517.53;5042589;28;19999;-76
2022/04/08 02:24:34;;;;;;;;;;;;;;;8.18;60.23;99521.50;5033769;28;20024;-76
2022/04/08 02:26:59;;;;;;;;;;;;;;;8.27;60.04;99528.13;5053371;28;20381;-75
2022/04/08 02:29:24;;;;;;;;;;;;;;;8.27;61.37;99522.13;5045437;28;19959;-75
2022/04/08 02:31:50;;;;;;;;;;;;;;;8.39;60.27;99532.09;5053933;28;19924;-74
2022/04/08 02:34:15;;;;;;;;;;;;;;;8.39;59.70;99532.09;5042149;28;20397;-75
2022/04/08 02:36:41;;;;;;;;;;;;;;;8.42;60.32;99542.34;5048990;28;20278;-75
2022/04/08 02:39:06;;;;;;;;;;;;;;;8.40;60.29;99537.25;5049516;28;19929;-75
2022/04/08 02:41:31;;;;;;;;;;;;;;;8.33;60.24;99538.31;5052830;28;20344;-76
2022/04/08 02:43:57;;;;;;;;;;;;;;;8.15;61.79;99542.28;5057648;28;20395;-75
2022/04/08 02:46:22;;;;;;;;;;;;;;;8.34;60.40;99547.78;5051476;28;19931;-76
2022/04/08 02:48:47;;;;;;;;;;;;;;;7.92;60.49;99547.31;5048346;28;19920;-74
2022/04/08 02:51:13;;;;;;;;;;;;;;;8.25;59.51;99541.13;5051853;28;19925;-74
2022/04/08 02:53:38;;;;;;;;;;;;;;;8.28;60.97;99553.13;5049854;28;19921;-74
2022/04/08 02:56:03;;;;;;;;;;;;;;;8.39;59.44;99543.31;5058807;28;19917;-75
2022/04/08 02:58:29;;;;;;;;;;;;;;;8.42;60.15;99550.97;5043685;28;20567;-74
2022/04/08 03:00:57;;;;;;;;;;;;;;;8.22;60.12;99554.16;5046076;28;20405;-75
2022/04/08 03:03:24;;;;;;;;;;;;;;;8.55;59.07;99547.09;5047727;28;20003;-76
2022/04/08 03:05:49;;;;;;;;;;;;;;;8.50;59.75;99550.75;5041640;28;19929;-75
2022/04/08 03:08:16;;;;;;;;;;;;;;;8.16;59.17;99553.50;5064839;28;20445;-76
2022/04/08 03:10:41;;;;;;;;;;;;;;;8.33;59.03;99551.25;5051150;28;19967;-74
2022/04/08 03:13:06;;;;;;;;;;;;;;;8.24;60.34;99549.78;5054459;28;19960;-76
2022/04/08 03:15:31;;;;;;;;;;;;;;;8.30;59.72;99555.63;5045238;28;19931;-76
2022/04/08 03:17:57;;;;;;;;;;;;;;;8.05;61.21;99553.81;5051934;28;20334;-74
2022/04/08 03:20:22;;;;;;;;;;;;;;;8.49;58.94;99546.44;5049945;28;19928;-74
2022/04/08 03:22:47;;;;;;;;;;;;;;;8.39;58.97;99542.44;5046341;28;20396;-75
2022/04/08 03:25:13;;;;;;;;;;;;;;;8.37;58.87;99550.28;5057409;28;19956;-75
2022/04/08 03:27:38;;;;;;;;;;;;;;;8.41;58.61;99548.44;5056201;28;19917;-76
2022/04/08 03:30:03;;;;;;;;;;;;;;;8.38;58.82;99549.41;5051515;28;19925;-76
2022/04/08 03:32:29;;;;;;;;;;;;;;;8.27;59.63;99550.59;5046535;28;19924;-74
2022/04/08 03:35:00;;;;;;;;;;;;;;;8.03;60.86;99552.16;5051159;28;20376;-76
2022/04/08 03:37:27;;;;;;;;;;;;;;;8.14;59.64;99552.69;5051847;28;20389;-75
2022/04/08 03:39:53;;;;;;;;;;;;;;;8.41;58.93;99564.81;5058427;28;20015;-76
2022/04/08 03:42:18;;;;;;;;;;;;;;;8.32;60.12;99570.25;5046140;28;20028;-74
2022/04/08 03:44:44;;;;;;;;;;;;;;;8.23;59.49;99573.97;5052156;28;19928;-75
2022/04/08 03:47:09;;;;;;;;;;;;;;;8.24;59.33;99579.97;5047572;28;19928;-75
2022/04/08 03:49:36;;;;;;;;;;;;;;;8.20;60.37;99581.81;5054564;28;20389;-76
2022/04/08 03:52:03;;;;;;;;;;;;;;;8.29;59.24;99587.59;5031369;28;19932;-76
2022/04/08 03:54:29;;;;;;;;;;;;;;;8.36;60.39;99583.94;5052780;28;19929;-76
2022/04/08 03:56:54;;;;;;;;;;;;;;;8.21;59.67;99586.09;5048708;28;19928;-76
2022/04/08 03:59:21;;;;;;;;;;;;;;;8.34;59.20;99590.91;5060118;28;19931;-75
2022/04/08 04:01:47;;;;;;;;;;;;;;;8.28;59.14;99591.94;5034258;28;19971;-76
2022/04/08 04:04:12;;;;;;;;;;;;;;;8.25;58.73;99600.63;5057282;28;20608;-74
2022/04/08 04:06:38;;;;;;;;;;;;;;;8.13;60.83;99607.91;5054444;28;20015;-76
2022/04/08 04:09:03;;;;;;;;;;;;;;;8.12;60.92;99601.03;5048771;28;20658;-76
2022/04/08 04:11:28;;;;;;;;;;;;;;;8.13;60.06;99598.41;5048316;28;19964;-75
2022/04/08 04:13:53;;;;;;;;;;;;;;;8.10;60.40;99597.63;5048125;28;20084;-77
2022/04/08 04:16:19;;;;;;;;;;;;;;;8.09;59.27;99604.56;5034127;28;20436;-76
2022/04/08 04:18:44;;;;;;;;;;;;;;;8.01;60.21;99606.53;5060920;28;19925;-76
2022/04/08 04:21:12;;;;;;;;;;;;;;;7.77;61.43;99601.19;5063697;28;19916;-77
2022/04/08 04:23:37;;;;;;;;;;;;;;;7.99;59.82;99594.53;5064637;28;20000;-77
2022/04/08 04:26:03;;;;;;;;;;;;;;;8.01;60.29;99601.34;5063840;28;20011;-76
2022/04/08 04:28:29;;;;;;;;;;;;;;;7.91;60.17;99622.34;5051855;28;19955;-75
2022/04/08 04:30:55;;;;;;;;;;;;;;;7.99;61.72;99625.56;5043366;28;19935;-77
2022/04/08 04:33:20;;;;;;;;;;;;;;;7.77;61.87;99624.47;5041129;28;19925;-77
2022/04/08 04:35:45;;;;;;;;;;;;;;;7.98;61.11;99627.28;5013063;28;20293;-77
2022/04/08 04:38:10;;;;;;;;;;;;;;;7.73;61.46;99621.13;5033605;28;20000;-74
2022/04/08 04:40:36;;;;;;;;;;;;;;;7.79;61.71;99628.69;5027269;28;19971;-75
2022/04/08 04:43:03;;;;;;;;;;;;;;;7.85;61.57;99625.13;5032536;28;20222;-77
2022/04/08 04:45:28;;;;;;;;;;;;;;;7.75;62.14;99623.66;5042161;28;19931;-77
2022/04/08 04:47:54;;;;;;;;;;;;;;;7.91;61.63;99623.19;5029862;28;19929;-77
2022/04/08 04:50:19;;;;;;;;;;;;;;;7.90;61.20;99623.25;5024044;28;19936;-77
2022/04/08 04:52:44;;;;;;;;;;;;;;;8.05;60.45;99621.06;5014955;28;19932;-76
2022/04/08 04:55:09;;;;;;;;;;;;;;;7.95;60.96;99622.22;5035050;28;20758;-76
2022/04/08 04:57:35;;;;;;;;;;;;;;;7.79;61.34;99613.19;5032150;28;20015;-76
2022/04/08 05:00:03;;;;;;;;;;;;;;;8.06;60.24;99616.72;5028635;28;20007;-77
2022/04/08 05:02:28;;;;;;;;;;;;;;;8.03;61.40;99611.63;5025962;28;19925;-77
2022/04/08 05:04:53;;;;;;;;;;;;;;;7.81;62.79;99614.00;5029190;28;20423;-75
2022/04/08 05:07:19;;;;;;;;;;;;;;;8.08;61.13;99620.97;5026790;28;19921;-76
2022/04/08 05:09:44;;;;;;;;;;;;;;;7.98;61.60;99608.34;5028471;28;19921;-74
2022/04/08 05:12:09;;;;;;;;;;;;;;;7.99;61.94;99607.47;5013711;28;19948;-75
2022/04/08 05:14:35;;;;;;;;;;;;;;;8.00;62.59;99616.94;5027383;28;19925;-75
2022/04/08 05:17:01;;;;;;;;;;;;;;;8.00;60.93;99609.16;5026454;28;19971;-77
2022/04/08 05:19:26;;;;;;;;;;;;;;;7.99;61.58;99616.06;5036609;28;19921;-77
2022/04/08 05:21:52;;;;;;;;;;;;;;;7.89;61.04;99617.22;5026849;28;19917;-76
2022/04/08 05:24:18;;;;;;;;;;;;;;;8.10;60.43;99614.00;5030063;28;19991;-77
2022/04/08 05:26:43;;;;;;;;;;;;;;;7.80;61.94;99609.72;5032081;28;20356;-77
2022/04/08 05:29:08;;;;;;;;;;;;;;;7.91;61.21;99612.84;5027327;28;19921;-77
2022/04/08 05:31:34;;;;;;;;;;;;;;;8.00;60.27;99615.16;5026201;28;19929;-75
2022/04/08 05:33:59;;;;;;;;;;;;;;;7.97;61.46;99606.66;5050455;28;20085;-75
2022/04/08 05:36:24;;;;;;;;;;;;;;;8.00;61.34;99606.59;5025824;28;19917;-76
2022/04/08 05:38:50;;;;;;;;;;;;;;;7.95;61.15;99613.59;5048741;28;19975;-76
2022/04/08 05:41:15;;;;;;;;;;;;;;;8.07;60.82;99615.84;5054337;28;20003;-75
2022/04/08 05:43:44;;;;;;;;;;;;;;;8.04;60.18;99606.44;5053588;28;19968;-76
2022/04/08 05:46:09;;;;;;;;;;;;;;;8.00;59.75;99596.25;5048235;28;19998;-74
2022/04/08 05:48:35;;;;;;;;;;;;;;;8.07;58.86;99600.31;5048929;28;19956;-76
2022/04/08 05:51:00;;;;;;;;;;;;;;;8.21;58.37;99598.16;5048817;28;19931;-77
2022/04/08 05:53:26;;;;;;;;;;;;;;;8.17;59.49;99599.16;5051080;28;20377;-75
2022/04/08 05:55:52;;;;;;;;;;;;;;;8.25;58.75;99595.47;5046666;28;19925;-75
2022/04/08 05:58:17;;;;;;;;;;;;;;;8.05;60.52;99604.69;5050738;28;19967;-76
2022/04/08 06:00:42;;;;;;;;;;;;;;;8.16;59.28;99603.50;5050123;28;19925;-75
2022/04/08 06:03:08;;;;;;;;;;;;;;;8.12;60.28;99607.03;5057122;28;20458;-75
2022/04/08 06:05:33;;;;;;;;;;;;;;;8.13;59.17;99606.16;5056335;28;19928;-76
2022/04/08 06:07:58;;;;;;;;;;;;;;;8.24;59.68;99598.06;5047227;28;19928;-77
2022/04/08 06:10:25;;;;;;;;;;;;;;;8.19;60.16;99594.78;5044201;28;20201;-75
2022/04/08 06:12:51;;;;;;;;;;;;;;;8.23;60.17;99596.41;5045850;28;20348;-77
2022/04/08 06:15:17;;;;;;;;;;;;;;;8.25;60.32;99587.69;5048165;28;19917;-76
2022/04/08 06:17:43;;;;;;;;;;;;;;;8.06;61.94;99590.84;5040667;28;20036;-76
2022/04/08 06:20:13;;;;;;;;;;;;;;;8.08;61.10;99591.69;5045987;28;20015;-76
2022/04/08 06:22:42;;;;;;;;;;;;;;;8.33;59.92;99586.59;5017199;28;19924;-76
2022/04/08 06:25:08;;;;;;;;;;;;;;;8.19;60.94;99589.59;5055053;28;20409;-76
2022/04/08 06:27:33;;;;;;;;;;;;;;;8.20;59.80;99583.56;5032681;28;20594;-76
2022/04/08 06:29:58;;;;;;;;;;;;;;;8.30;60.03;99582.38;5042642;28;19932;-77
2022/04/08 06:32:24;;;;;;;;;;;;;;;8.53;59.40;99590.31;5057610;28;19991;-77
2022/04/08 06:34:49;;;;;;;;;;;;;;;8.39;60.61;99581.25;5044464;28;19929;-76
2022/04/08 06:37:14;;;;;;;;;;;;;;;8.55;58.82;99579.91;5045613;28;19987;-76
2022/04/08 06:39:39;;;;;;;;;;;;;;;8.61;58.98;99575.38;5053164;28;20682;-76
2022/04/08 06:42:05;;;;;;;;;;;;;;;8.63;58.49;99583.94;5050402;28;20606;-76
2022/04/08 06:44:31;;;;;;;;;;;;;;;8.68;58.81;99583.81;5052896;28;19931;-76
2022/04/08 06:46:56;;;;;;;;;;;;;;;8.48;60.16;99591.34;5061998;28;20487;-76
2022/04/08 06:49:21;;;;;;;;;;;;;;;8.71;58.16;99591.47;5047024;28;19921;-76
2022/04/08 06:51:47;;;;;;;;;;;;;;;8.68;59.74;99589.81;5064731;28;20331;-76
2022/04/08 06:54:12;;;;;;;;;;;;;;;8.68;59.96;99587.22;5066200;28;19919;-75
2022/04/08 06:56:37;;;;;;;;;;;;;;;8.58;58.59;99577.22;5060617;28;20472;-76
2022/04/08 06:59:03;;;;;;;;;;;;;;;8.77;57.58;99581.75;5055614;28;20765;-76
2022/04/08 07:01:29;;;;;;;;;;;;;;;8.68;56.91;99582.03;5060743;28;19971;-76
2022/04/08 07:03:55;;;;;;;;;;;;;;;8.80;56.87;99573.03;5062425;28;20305;-77
2022/04/08 07:06:20;;;;;;;;;;;;;;;8.74;58.31;99566.31;5061445;28;20404;-77
2022/04/08 07:08:46;;;;;;;;;;;;;;;8.72;57.68;99564.69;5057234;28;20400;-76
2022/04/08 07:11:11;;;;;;;;;;;;;;;8.76;57.29;99572.31;5061489;28;19921;-76
2022/04/08 07:13:38;;;;;;;;;;;;;;;8.79;56.46;99563.59;5060995;28;20012;-76
2022/04/08 07:16:03;;;;;;;;;;;;;;;8.93;56.05;99556.22;5047883;28;19951;-77
2022/04/08 07:18:28;;;;;;;;;;;;;;;8.97;54.86;99551.78;5059156;28;19951;-77
2022/04/08 07:20:54;;;;;;;;;;;;;;;8.77;55.65;99553.25;5053792;28;20015;-76
2022/04/08 07:23:19;;;;;;;;;;;;;;;8.81;56.37;99561.78;5062142;28;20003;-76
2022/04/08 07:25:44;;;;;;;;;;;;;;;8.98;56.36;99554.28;5057004;28;19929;-76
2022/04/08 07:28:10;;;;;;;;;;;;;;;8.82;57.68;99553.13;5050027;28;20460;-76
2022/04/08 07:30:35;;;;;;;;;;;;;;;8.84;56.43;99548.75;5063554;28;19924;-77
2022/04/08 07:33:03;;;;;;;;;;;;;;;9.10;55.36;99558.22;5049203;28;19931;-74
2022/04/08 07:35:30;;;;;;;;;;;;;;;9.07;55.10;99555.72;5053698;28;19956;-77
2022/04/08 07:37:56;;;;;;;;;;;;;;;8.96;56.73;99555.25;5047965;28;19924;-76
2022/04/08 07:40:22;;;;;;;;;;;;;;;8.97;56.35;99555.22;5051739;28;19925;-77
2022/04/08 07:42:48;;;;;;;;;;;;;;;8.87;57.75;99559.00;5058421;28;20561;-77
2022/04/08 07:45:13;;;;;;;;;;;;;;;8.76;56.96;99561.94;5047865;28;19987;-77
2022/04/08 07:47:39;;;;;;;;;;;;;;;8.64;56.68;99564.94;5057948;28;20555;-74
2022/04/08 07:50:12;;;;;;;;;;;;;;;8.56;58.05;99561.72;5055090;28;20015;-74
2022/04/08 07:52:38;;;;;;;;;;;;;;;8.44;58.18;99551.78;5060283;28;19927;-77
2022/04/08 07:55:03;;;;;;;;;;;;;;;8.79;56.92;99551.50;5065703;28;19916;-76
2022/04/08 07:57:28;;;;;;;;;;;;;;;8.80;56.06;99550.56;5059036;28;20504;-75
2022/04/08 07:59:54;;;;;;;;;;;;;;;8.73;56.77;99554.28;5058032;28;20479;-76
2022/04/08 08:02:19;;;;;;;;;;;;;;;8.78;57.74;99548.94;5057936;28;19928;-77
2022/04/08 08:04:45;;;;;;;;;;;;;;;8.53;58.72;99551.50;5058438;28;20418;-77
2022/04/08 08:07:10;;;;;;;;;;;;;;;8.47;57.03;99550.84;5054412;28;19925;-77
2022/04/08 08:09:35;;;;;;;;;;;;;;;8.79;56.43;99542.88;5061834;28;19925;-77
2022/04/08 08:12:01;;;;;;;;;;;;;;;8.46;56.86;99550.00;5036049;28;19947;-77
2022/04/08 08:14:26;;;;;;;;;;;;;;;8.84;57.36;99548.75;5039402;28;19931;-77
2022/04/08 08:16:51;;;;;;;;;;;;;;;8.82;56.61;99539.34;5052128;28;19925;-77
2022/04/08 08:19:17;;;;;;;;;;;;;;;8.69;57.09;99542.31;5056187;28;19925;-77
2022/04/08 08:21:42;;;;;;;;;;;;;;;8.82;57.01;99536.75;5062080;28;20011;-76
2022/04/08 08:24:09;;;;;;;;;;;;;;;8.77;57.11;99537.72;5059262;28;19923;-77
2022/04/08 08:26:34;;;;;;;;;;;;;;;8.92;56.90;99538.16;5037620;28;19932;-77
2022/04/08 08:29:00;;;;;;;;;;;;;;;9.05;57.04;99531.63;5058689;28;19920;-77
2022/04/08 08:31:25;;;;;;;;;;;;;;;9.07;57.84;99537.59;5051992;28;20016;-77
2022/04/08 08:33:50;;;;;;;;;;;;;;;8.93;58.01;99535.47;5044984;28;19928;-76
2022/04/08 08:36:16;;;;;;;;;;;;;;;8.94;56.68;99532.00;5020479;28;20386;-76
2022/04/08 08:38:42;;;;;;;;;;;;;;;9.03;56.87;99528.25;5034211;28;19965;-75
2022/04/08 08:41:08;;;;;;;;;;;;;;;9.06;57.02;99525.56;5035039;28;20283;-75
2022/04/08 08:43:33;;;;;;;;;;;;;;;8.87;56.74;99521.88;5020168;28;20377;-76
2022/04/08 08:46:01;;;;;;;;;;;;;;;8.83;56.72;99515.97;5025300;28;19921;-76
2022/04/08 08:48:30;;;;;;;;;;;;;;;8.77;57.57;99513.63;5033728;28;19921;-76
2022/04/08 08:50:58;;;;;;;;;;;;;;;8.93;56.52;99512.19;5034140;28;19924;-74
2022/04/08 08:53:24;;;;;;;;;;;;;;;8.97;57.10;99513.78;5029380;28;20437;-76
2022/04/08 08:55:50;;;;;;;;;;;;;;;8.88;56.61;99505.47;5043816;28;20397;-76
2022/04/08 08:58:15;;;;;;;;;;;;;;;8.99;56.89;99500.75;5029663;28;19925;-76
2022/04/08 09:00:41;;;;;;;;;;;;;;;9.26;54.99;99494.59;5027287;28;19940;-77
2022/04/08 09:03:07;;;;;;;;;;;;;;;9.24;55.28;99492.09;5031394;28;19921;-76
2022/04/08 09:05:39;;;;;;;;;;;;;;;9.17;55.46;99484.56;5029663;28;20031;-77
2022/04/08 09:08:05;;;;;;;;;;;;;;;9.05;57.27;99485.00;5029964;28;20464;-78
2022/04/08 09:10:48;;;;;;;;;;;;;;;9.11;54.91;99479.59;5040016;28;22364;-74
2022/04/08 09:13:23;;;;;;;;;;;;;;;9.04;57.78;99478.97;5032902;28;19924;-77
2022/04/08 09:15:55;;;;;;;;;;;;;;;9.01;57.46;99470.50;5040586;28;19913;-77
2022/04/08 09:18:20;;;;;;;;;;;;;;;9.15;55.67;99463.06;5040575;28;19913;-77
2022/04/08 09:20:49;;;;;;;;;;;;;;;9.03;55.52;99456.59;5025985;28;19925;-79
2022/04/08 09:23:16;;;;;;;;;;;;;;;9.20;55.91;99446.44;5035293;28;20418;-75
2022/04/08 09:25:42;;;;;;;;;;;;;;;9.11;55.76;99443.34;5035661;28;19929;-75
2022/04/08 09:28:15;;;;;;;;;;;;;;;9.38;54.98;99436.31;5026040;28;19928;-77
2022/04/08 09:30:46;;;;;;;;;;;;;;;9.39;55.86;99435.41;5009595;28;19924;-76
2022/04/08 09:33:12;;;;;;;;;;;;;;;9.20;55.52;99436.09;5033000;28;19932;-78
2022/04/08 09:35:38;;;;;;;;;;;;;;;9.39;54.72;99436.25;5025841;28;19974;-77
2022/04/08 09:38:04;;;;;;;;;;;;;;;9.51;53.54;99428.03;5033790;28;19929;-77
2022/04/08 09:40:36;;;;;;;;;;;;;;;9.51;54.34;99427.19;5043891;28;20308;-77
2022/04/08 09:43:02;;;;;;;;;;;;;;;9.53;54.66;99412.41;5038089;28;20011;-78
2022/04/08 09:45:30;;;;;;;;;;;;;;;9.34;56.62;99415.69;5048882;28;20016;-78
2022/04/08 09:47:56;;;;;;;;;;;;;;;9.41;55.69;99407.69;5045822;28;19925;-78
2022/04/08 09:50:22;;;;;;;;;;;;;;;9.42;55.88;99406.78;5048324;28;19920;-78
2022/04/08 09:52:48;;;;;;;;;;;;;;;9.38;55.23;99406.06;5046297;28;19948;-75
2022/04/08 09:55:13;;;;;;;;;;;;;;;9.40;54.45;99401.66;5047040;28;19956;-77
2022/04/08 09:57:39;;;;;;;;;;;;;;;9.46;54.83;99398.81;5053363;28;20358;-77
2022/04/08 10:00:05;;;;;;;;;;;;;;;9.28;54.36;99396.91;5030059;28;19924;-78
2022/04/08 10:02:32;;;;;;;;;;;;;;;9.43;54.94;99398.94;5053366;28;19927;-77
2022/04/08 10:04:59;;;;;;;;;;;;;;;9.28;55.71;99408.13;5051953;28;19936;-75
2022/04/08 10:07:25;;;;;;;;;;;;;;;9.25;55.99;99408.25;5046865;28;19932;-77
2022/04/08 10:10:06;;;;;;;;;;;;;;;9.13;54.84;99413.88;5050520;28;20611;-77
2022/04/08 10:12:46;;;;;;;;;;;;;;;9.30;54.99;99415.88;5043026;28;19915;-77
2022/04/08 10:15:22;;;;;;;;;;;;;;;9.38;56.18;99423.34;5064873;28;19908;-79
2022/04/08 10:18:03;;;;;;;;;;;;;;;9.31;53.88;99413.22;5048373;28;19983;-75
2022/04/08 10:20:29;;;;;;;;;;;;;;;9.22;55.64;99417.88;5067059;28;20444;-78
2022/04/08 10:23:10;;;;;;;;;;;;;;;9.22;55.30;99423.91;5056959;28;19926;-75
2022/04/08 10:25:40;;;;;;;;;;;;;;;9.25;56.84;99412.59;5035359;28;20270;-75
2022/04/08 10:28:06;;;;;;;;;;;;;;;9.46;54.02;99419.56;5042896;28;19994;-78
2022/04/08 10:30:36;;;;;;;;;;;;;;;9.47;53.79;99410.03;5043970;28;19928;-78
2022/04/08 10:33:06;;;;;;;;;;;;;;;9.47;54.19;99408.31;5056493;28;19920;-78
2022/04/08 10:35:32;;;;;;;;;;;;;;;9.50;53.77;99410.78;5048806;28;19920;-78
2022/04/08 10:37:58;;;;;;;;;;;;;;;9.44;55.05;99411.00;5051232;28;20125;-77
2022/04/08 10:40:30;;;;;;;;;;;;;;;9.47;55.78;99403.13;5055938;28;19968;-78
2022/04/08 10:42:56;;;;;;;;;;;;;;;9.52;54.76;99400.34;5055619;28;19928;-78
2022/04/08 10:45:21;;;;;;;;;;;;;;;9.56;53.39;99392.41;5047476;28;19923;-78
2022/04/08 10:47:47;;;;;;;;;;;;;;;9.54;53.04;99391.63;5051818;28;20288;-78
2022/04/08 10:50:22;;;;;;;;;;;;;;;9.48;52.33;99384.09;5044548;28;19951;-78
2022/04/08 10:52:48;;;;;;;;;;;;;;;9.48;53.69;99388.41;5055901;28;19931;-78
2022/04/08 10:55:13;;;;;;;;;;;;;;;9.48;53.13;99378.91;5059945;28;19925;-79
2022/04/08 10:57:40;;;;;;;;;;;;;;;9.50;53.28;99374.50;5061722;28;20304;-78
2022/04/08 11:00:07;;;;;;;;;;;;;;;9.53;54.11;99360.56;5061716;28;20387;-78
2022/04/08 11:02:34;;;;;;;;;;;;;;;9.52;53.42;99353.69;5059493;28;19921;-78
2022/04/08 11:05:00;;;;;;;;;;;;;;;9.54;53.62;99338.94;5044601;28;19920;-78
2022/04/08 11:07:27;;;;;;;;;;;;;;;9.42;54.39;99335.06;5050374;28;19931;-78
2022/04/08 11:09:55;;;;;;;;;;;;;;;9.50;54.76;99325.25;5053419;28;19963;-75
2022/04/08 11:12:20;;;;;;;;;;;;;;;9.48;54.40;99310.66;5055691;28;20540;-78
2022/04/08 11:14:52;;;;;;;;;;;;;;;9.55;54.08;99307.75;5064566;28;19974;-78
2022/04/08 11:17:19;;;;;;;;;;;;;;;9.58;54.98;99306.78;5062083;28;20015;-78
2022/04/08 11:19:48;;;;;;;;;;;;;;;9.62;55.58;99300.56;5052098;28;19932;-75
2022/04/08 11:22:13;;;;;;;;;;;;;;;9.58;55.04;99299.00;5054232;28;20434;-75
2022/04/08 11:24:39;;;;;;;;;;;;;;;9.41;56.23;99297.09;5063223;28;19924;-75
2022/04/08 11:27:04;;;;;;;;;;;;;;;9.57;55.10;99281.78;5041645;28;19928;-78
2022/04/08 11:29:30;;;;;;;;;;;;;;;9.63;55.12;99289.31;5050911;28;19982;-75
2022/04/08 11:32:11;;;;;;;;;;;;;;;9.48;54.92;99285.59;5050630;28;20011;-75
2022/04/08 11:34:37;;;;;;;;;;;;;;;9.69;54.59;99278.69;5044533;28;20405;-77
2022/04/08 11:37:02;;;;;;;;;;;;;;;9.49;54.45;99278.63;5049385;28;19960;-77
2022/04/08 11:39:30;;;;;;;;;;;;;;;9.66;55.18;99279.63;5053393;28;19921;-78
2022/04/08 11:41:56;;;;;;;;;;;;;;;9.76;54.82;99273.16;5047820;28;19917;-75
2022/04/08 11:44:22;;;;;;;;;;;;;;;9.60;54.87;99276.47;5060346;28;19927;-78
2022/04/08 11:46:47;;;;;;;;;;;;;;;9.73;54.64;99269.84;5064294;28;19960;-78
2022/04/08 11:49:13;;;;;;;;;;;;;;;9.40;55.14;99287.63;5057409;28;19928;-77
2022/04/08 11:51:38;;;;;;;;;;;;;;;9.17;55.58;99290.25;5062021;28;19912;-78
2022/04/08 11:54:04;;;;;;;;;;;;;;;9.25;55.83;99281.28;5070313;28;20269;-78
2022/04/08 11:56:30;;;;;;;;;;;;;;;9.55;54.25;99284.41;5067398;28;19962;-78
2022/04/08 11:58:56;;;;;;;;;;;;;;;9.22;55.83;99283.16;5064034;28;19934;-78
2022/04/08 12:01:22;;;;;;;;;;;;;;;9.07;55.76;99288.91;5066404;28;19925;-75
2022/04/08 12:03:48;;;;;;;;;;;;;;;9.04;54.96;99289.06;5068948;28;19935;-78
2022/04/08 12:06:14;;;;;;;;;;;;;;;9.07;55.34;99287.19;5059754;28;20281;-75
2022/04/08 12:08:39;;;;;;;;;;;;;;;9.28;54.60;99285.50;5057370;28;19921;-77
2022/04/08 12:11:09;;;;;;;;;;;;;;;9.04;56.24;99282.13;5061264;28;19928;-75
2022/04/08 12:13:36;;;;;;;;;;;;;;;8.77;57.34;99289.19;5068984;28;19920;-78
2022/04/08 12:16:02;;;;;;;;;;;;;;;8.94;56.93;99298.06;5052287;28;19927;-78
2022/04/08 12:18:28;;;;;;;;;;;;;;;8.60;58.22;99288.09;5067470;28;19916;-78
2022/04/08 12:20:57;;;;;;;;;;;;;;;9.25;54.95;99283.88;5069834;28;20023;-78
2022/04/08 12:23:23;;;;;;;;;;;;;;;9.02;56.68;99285.66;5051574;28;19932;-79
2022/04/08 12:25:50;;;;;;;;;;;;;;;9.08;56.02;99291.47;5058869;28;19920;-78
2022/04/08 12:28:15;;;;;;;;;;;;;;;8.80;55.81;99283.03;5049044;28;19933;-78
2022/04/08 12:30:40;;;;;;;;;;;;;;;9.27;54.36;99276.06;5061203;28;20110;-78
2022/04/08 12:33:06;;;;;;;;;;;;;;;8.91;55.06;99280.06;5059608;28;19921;-78
2022/04/08 12:35:31;;;;;;;;;;;;;;;8.68;56.02;99262.81;5068763;28;19928;-76
2022/04/08 12:37:59;;;;;;;;;;;;;;;8.89;56.30;99264.56;5027890;28;19971;-77
2022/04/08 12:40:25;;;;;;;;;;;;;;;8.89;56.76;99268.94;5045323;28;20003;-78
2022/04/08 12:42:50;;;;;;;;;;;;;;;9.20;56.17;99270.28;5064528;28;20019;-78
2022/04/08 12:45:16;;;;;;;;;;;;;;;9.16;56.90;99276.47;5067945;28;20392;-77
2022/04/08 12:47:41;;;;;;;;;;;;;;;8.71;57.26;99273.06;5065227;28;20011;-78
2022/04/08 12:50:11;;;;;;;;;;;;;;;9.03;56.72;99266.66;5050501;28;20462;-78
2022/04/08 12:52:37;;;;;;;;;;;;;;;8.84;56.60;99266.50;5053519;28;19926;-78